createdAt,value
2022-09-30T00:02:16.162Z,7.51
2022-09-30T00:04:48.686Z,7.49
2022-09-30T00:07:20.929Z,7.48
2022-09-30T00:09:53.302Z,7.48
2022-09-30T00:12:27.604Z,7.48
2022-09-30T00:15:01.726Z,7.48
2022-09-30T00:17:34.540Z,7.47
2022-09-30T00:20:09.858Z,7.47
2022-09-30T00:22:43.146Z,7.47
2022-09-30T00:25:16.383Z,7.47
2022-09-30T00:27:48.617Z,7.47
2022-09-30T00:30:20.974Z,7.47
2022-09-30T00:32:53.253Z,7.47
2022-09-30T00:35:25.624Z,7.48
2022-09-30T00:38:00.433Z,7.48
2022-09-30T00:40:32.994Z,7.47
2022-09-30T00:43:07.045Z,7.47
2022-09-30T00:45:39.390Z,7.47
2022-09-30T00:48:17.936Z,7.46
2022-09-30T00:50:55.613Z,7.47
2022-09-30T00:53:33.253Z,7.46
2022-09-30T00:56:09.186Z,7.47
2022-09-30T00:58:47.423Z,7.48
2022-09-30T01:01:20.392Z,7.48
2022-09-30T01:03:56.526Z,7.48
2022-09-30T01:06:28.804Z,7.48
2022-09-30T01:09:02.327Z,7.48
2022-09-30T01:11:34.870Z,7.48
2022-09-30T01:14:12.948Z,7.49
2022-09-30T01:16:56.949Z,7.50
2022-09-30T01:19:49.371Z,7.51
2022-09-30T01:22:33.333Z,7.52
2022-09-30T01:25:26.075Z,7.53
2022-09-30T01:28:38.426Z,7.53
2022-09-30T01:31:25.078Z,7.53
2022-09-30T01:34:07.571Z,7.52
2022-09-30T01:36:54.643Z,7.53
2022-09-30T01:39:38.823Z,7.54
2022-09-30T01:42:19.840Z,7.55
2022-09-30T01:45:03.572Z,7.54
2022-09-30T01:47:44.128Z,7.53
2022-09-30T01:50:22.942Z,7.52
2022-09-30T01:53:05.076Z,7.50
2022-09-30T01:55:44.139Z,7.48
2022-09-30T01:58:21.035Z,7.46
2022-09-30T02:00:54.755Z,7.46
2022-09-30T02:03:33.955Z,7.42
2022-09-30T02:06:09.299Z,7.39
2022-09-30T02:08:47.402Z,7.38
2022-09-30T02:11:25.155Z,7.37
2022-09-30T02:14:03.069Z,7.38
2022-09-30T02:16:41.249Z,7.34
2022-09-30T02:19:20.572Z,7.29
2022-09-30T02:21:58.054Z,7.25
2022-09-30T02:24:37.052Z,7.21
2022-09-30T02:27:14.495Z,7.17
2022-09-30T02:29:51.024Z,7.15
2022-09-30T02:32:29.135Z,7.17
2022-09-30T02:35:04.008Z,7.18
2022-09-30T02:37:42.268Z,7.16
2022-09-30T02:40:19.620Z,7.13
2022-09-30T02:42:51.967Z,7.16
2022-09-30T02:45:25.742Z,7.21
2022-09-30T02:48:14.854Z,7.24
2022-09-30T02:50:53.068Z,7.25
2022-09-30T02:53:33.378Z,7.25
2022-09-30T02:56:14.544Z,7.25
2022-09-30T02:58:48.817Z,7.23
2022-09-30T03:01:21.519Z,7.20
2022-09-30T03:03:56.734Z,7.16
2022-09-30T03:06:29.608Z,7.13
2022-09-30T03:09:01.740Z,7.11
2022-09-30T03:11:34.460Z,7.10
2022-09-30T03:14:32.197Z,7.08
2022-09-30T03:17:27.961Z,7.07
2022-09-30T03:20:22.124Z,7.06
2022-09-30T03:23:23.200Z,7.06
2022-09-30T03:26:05.127Z,7.04
2022-09-30T03:28:44.779Z,7.00
2022-09-30T03:31:24.341Z,6.94
2022-09-30T03:34:02.430Z,6.91
2022-09-30T03:36:40.569Z,6.92
2022-09-30T03:39:24.959Z,6.89
2022-09-30T03:42:06.743Z,6.90
2022-09-30T03:44:43.775Z,6.88
2022-09-30T03:47:20.060Z,6.84
2022-09-30T03:49:57.262Z,6.82
2022-09-30T03:52:31.733Z,6.82
2022-09-30T03:55:08.147Z,6.84
2022-09-30T03:57:40.822Z,6.85
2022-09-30T04:00:14.781Z,6.86
2022-09-30T04:02:46.932Z,6.86
2022-09-30T04:05:19.119Z,6.86
2022-09-30T04:07:51.162Z,6.85
2022-09-30T04:10:23.485Z,6.83
2022-09-30T04:12:57.899Z,6.81
2022-09-30T04:15:30.109Z,6.82
2022-09-30T04:18:02.893Z,6.82
2022-09-30T04:20:35.819Z,6.82
2022-09-30T04:23:07.930Z,6.79
2022-09-30T04:25:40.123Z,6.77
2022-09-30T04:28:12.188Z,6.76
2022-09-30T04:30:44.347Z,6.73
2022-09-30T04:33:17.265Z,6.71
2022-09-30T04:35:49.305Z,6.69
2022-09-30T04:38:21.342Z,6.69
2022-09-30T04:40:54.773Z,6.68
2022-09-30T04:43:27.386Z,6.69
2022-09-30T04:45:59.738Z,6.69
2022-09-30T04:48:32.491Z,6.69
2022-09-30T04:51:04.674Z,6.71
2022-09-30T04:53:37.390Z,6.72
2022-09-30T04:56:10.304Z,6.73
2022-09-30T04:58:42.389Z,6.74
2022-09-30T05:01:16.944Z,6.74
2022-09-30T05:03:49.422Z,6.73
2022-09-30T05:06:22.080Z,6.72
2022-09-30T05:08:54.708Z,6.71
2022-09-30T05:11:27.852Z,6.69
2022-09-30T05:13:59.989Z,6.68
2022-09-30T05:16:32.157Z,6.69
2022-09-30T05:19:04.881Z,6.73
2022-09-30T05:21:37.377Z,6.75
2022-09-30T05:24:09.597Z,6.76
2022-09-30T05:26:41.674Z,6.77
2022-09-30T05:29:14.320Z,6.79
2022-09-30T05:31:46.850Z,6.82
2022-09-30T05:34:19.084Z,6.83
2022-09-30T05:36:51.302Z,6.86
2022-09-30T05:39:23.557Z,6.89
2022-09-30T05:41:57.138Z,6.93
2022-09-30T05:44:29.205Z,6.98
2022-09-30T05:47:01.478Z,7.05
2022-09-30T05:49:34.920Z,7.15
2022-09-30T05:52:07.895Z,7.26
2022-09-30T05:54:40.100Z,7.36
2022-09-30T05:57:13.664Z,7.49
2022-09-30T05:59:45.832Z,7.67
2022-09-30T06:02:18.011Z,7.91
2022-09-30T06:04:50.704Z,8.27
2022-09-30T06:07:23.014Z,8.68
2022-09-30T06:09:55.206Z,9.09
2022-09-30T06:12:28.849Z,9.60
2022-09-30T06:15:00.933Z,10.07
2022-09-30T06:17:33.247Z,10.50
2022-09-30T06:20:06.408Z,11.04
2022-09-30T06:22:39.231Z,11.60
2022-09-30T06:25:12.818Z,12.04
2022-09-30T06:27:47.803Z,12.56
2022-09-30T06:30:20.098Z,13.28
2022-09-30T06:32:54.235Z,14.01
2022-09-30T06:35:27.808Z,14.37
2022-09-30T06:38:00.035Z,14.80
2022-09-30T06:40:32.153Z,15.21
2022-09-30T06:43:05.754Z,15.31
2022-09-30T06:45:39.055Z,15.35
2022-09-30T06:48:12.864Z,15.33
2022-09-30T06:50:58.438Z,15.20
2022-09-30T06:53:35.614Z,15.04
2022-09-30T06:56:08.349Z,15.31
2022-09-30T06:58:41.590Z,15.58
2022-09-30T07:01:15.699Z,15.76
2022-09-30T07:03:54.017Z,15.83
2022-09-30T07:06:27.369Z,15.76
2022-09-30T07:09:00.109Z,15.80
2022-09-30T07:11:32.489Z,15.85
2022-09-30T07:14:05.588Z,16.03
2022-09-30T07:16:38.757Z,16.25
2022-09-30T07:19:12.251Z,17.02
2022-09-30T07:21:44.771Z,18.06
2022-09-30T07:24:17.212Z,19.12
2022-09-30T07:26:49.601Z,20.16
2022-09-30T07:29:21.989Z,20.95
2022-09-30T07:31:55.419Z,21.51
2022-09-30T07:34:35.602Z,22.00
2022-09-30T07:37:07.924Z,22.09
2022-09-30T07:39:40.028Z,22.06
2022-09-30T07:42:12.192Z,21.80
2022-09-30T07:44:45.092Z,21.49
2022-09-30T07:47:18.860Z,21.31
2022-09-30T07:49:51.213Z,21.05
2022-09-30T07:52:23.293Z,20.82
2022-09-30T07:54:55.947Z,20.58
2022-09-30T07:57:28.228Z,20.27
2022-09-30T08:00:08.141Z,19.89
2022-09-30T08:02:52.704Z,19.55
2022-09-30T08:05:24.796Z,19.40
2022-09-30T08:07:57.195Z,19.36
2022-09-30T08:10:29.415Z,19.53
2022-09-30T08:13:04.264Z,19.61
2022-09-30T08:15:38.783Z,19.42
2022-09-30T08:18:10.968Z,19.17
2022-09-30T08:20:43.031Z,18.80
2022-09-30T08:23:15.393Z,18.26
2022-09-30T08:25:47.965Z,17.75
2022-09-30T08:28:20.269Z,17.29
2022-09-30T08:30:52.382Z,16.93
2022-09-30T08:33:24.621Z,16.60
2022-09-30T08:35:56.714Z,16.26
2022-09-30T08:38:28.968Z,15.92
2022-09-30T08:41:13.317Z,15.69
2022-09-30T08:43:59.573Z,15.47
2022-09-30T08:46:39.480Z,15.31
2022-09-30T08:49:28.442Z,15.13
2022-09-30T08:52:03.190Z,14.88
2022-09-30T08:54:40.242Z,14.67
2022-09-30T08:57:14.488Z,14.47
2022-09-30T08:59:49.465Z,14.26
2022-09-30T09:02:27.798Z,14.08
2022-09-30T09:05:03.120Z,13.95
2022-09-30T09:07:43.626Z,13.81
2022-09-30T09:10:29.648Z,13.64
2022-09-30T09:13:12.653Z,13.49
2022-09-30T09:16:01.179Z,13.35
2022-09-30T09:18:43.498Z,13.18
2022-09-30T09:21:23.840Z,13.04
2022-09-30T09:23:58.819Z,12.93
2022-09-30T09:26:36.587Z,12.84
2022-09-30T09:29:26.869Z,12.77
2022-09-30T09:32:02.158Z,12.67
2022-09-30T09:34:38.239Z,12.63
2022-09-30T09:37:21.961Z,12.62
2022-09-30T09:40:11.175Z,12.61
2022-09-30T09:43:02.157Z,12.67
2022-09-30T09:45:39.734Z,12.69
2022-09-30T09:48:17.523Z,12.78
2022-09-30T09:50:59.642Z,12.88
2022-09-30T09:53:45.587Z,12.93
2022-09-30T09:56:21.542Z,12.96
2022-09-30T09:59:12.692Z,12.98
2022-09-30T10:01:46.865Z,13.05
2022-09-30T10:04:24.661Z,13.16
2022-09-30T10:07:01.155Z,13.31
2022-09-30T10:09:36.181Z,13.49
2022-09-30T10:12:37.081Z,13.65
2022-09-30T10:15:24.539Z,13.88
2022-09-30T10:18:01.020Z,14.04
2022-09-30T10:20:37.824Z,14.17
2022-09-30T10:23:19.782Z,14.26
2022-09-30T10:26:17.690Z,14.30
2022-09-30T10:28:49.818Z,14.27
2022-09-30T10:31:27.521Z,14.24
2022-09-30T10:34:11.050Z,14.22
2022-09-30T10:36:44.975Z,14.27
2022-09-30T10:39:25.068Z,14.33
2022-09-30T10:42:08.658Z,14.41
2022-09-30T10:44:48.925Z,14.47
2022-09-30T10:47:26.229Z,14.51
2022-09-30T10:50:04.732Z,14.56
2022-09-30T10:52:44.805Z,14.65
2022-09-30T10:55:33.242Z,14.78
2022-09-30T10:58:26.624Z,14.87
2022-09-30T11:01:06.063Z,14.90
2022-09-30T11:03:48.536Z,14.92
2022-09-30T11:06:22.705Z,14.96
2022-09-30T11:09:03.442Z,14.95
2022-09-30T11:11:43.153Z,14.96
2022-09-30T11:14:30.826Z,14.98
2022-09-30T11:17:20.490Z,15.00
2022-09-30T11:20:07.772Z,14.99
2022-09-30T11:22:48.860Z,14.99
2022-09-30T11:25:28.606Z,15.03
2022-09-30T11:28:29.775Z,15.05
2022-09-30T11:31:09.850Z,15.01
2022-09-30T11:33:58.387Z,14.93
2022-09-30T11:36:39.875Z,14.81
2022-09-30T11:39:35.262Z,14.69
2022-09-30T11:42:15.127Z,14.59
2022-09-30T11:44:48.138Z,14.50
2022-09-30T11:47:39.555Z,14.43
2022-09-30T11:50:37.424Z,14.37
2022-09-30T11:53:21.129Z,14.32
2022-09-30T11:56:18.076Z,14.27
2022-09-30T11:58:52.989Z,14.23
2022-09-30T12:01:31.082Z,14.23
2022-09-30T12:04:10.089Z,14.22
2022-09-30T12:06:45.744Z,14.21
2022-09-30T12:09:23.591Z,14.21
2022-09-30T12:12:02.191Z,14.21
2022-09-30T12:14:42.435Z,14.19
2022-09-30T12:17:27.987Z,14.18
2022-09-30T12:20:04.465Z,14.16
2022-09-30T12:22:42.856Z,14.16
2022-09-30T12:25:20.115Z,14.17
2022-09-30T12:27:58.157Z,14.21
2022-09-30T12:30:32.068Z,14.27
2022-09-30T12:33:29.080Z,14.33
2022-09-30T12:36:20.126Z,14.40
2022-09-30T12:39:15.829Z,14.46
2022-09-30T12:42:07.876Z,14.48
2022-09-30T12:45:22.664Z,14.48
2022-09-30T12:47:57.720Z,14.47
2022-09-30T12:50:36.096Z,14.47
2022-09-30T12:53:18.793Z,14.48
2022-09-30T12:55:52.776Z,14.50
2022-09-30T12:58:31.184Z,14.49
2022-09-30T13:01:07.975Z,14.49
2022-09-30T13:03:53.801Z,14.46
2022-09-30T13:06:28.260Z,14.44
2022-09-30T13:09:22.431Z,14.42
2022-09-30T13:12:25.246Z,14.38
2022-09-30T13:15:39.787Z,14.31
2022-09-30T13:18:48.179Z,14.27
2022-09-30T13:21:24.437Z,14.26
2022-09-30T13:23:58.045Z,14.25
2022-09-30T13:26:46.413Z,14.25
2022-09-30T13:29:39.332Z,14.25
2022-09-30T13:32:12.734Z,14.24
2022-09-30T13:35:20.896Z,14.20
2022-09-30T13:38:16.759Z,14.16
2022-09-30T13:41:08.000Z,14.12
2022-09-30T13:43:45.161Z,14.10
2022-09-30T13:46:29.974Z,14.08
2022-09-30T13:49:08.207Z,14.06
2022-09-30T13:51:40.933Z,14.03
2022-09-30T13:54:21.240Z,13.97
2022-09-30T13:56:54.807Z,13.92
2022-09-30T13:59:49.373Z,13.88
2022-09-30T14:02:43.530Z,13.80
2022-09-30T14:05:46.302Z,13.76
2022-09-30T14:08:36.817Z,13.73
2022-09-30T14:11:22.224Z,13.68
2022-09-30T14:14:09.553Z,13.64
2022-09-30T14:16:56.435Z,13.62
2022-09-30T14:19:44.548Z,13.60
2022-09-30T14:22:19.199Z,13.59
2022-09-30T14:24:53.021Z,13.57
2022-09-30T14:27:46.724Z,13.53
2022-09-30T14:30:23.220Z,13.47
2022-09-30T14:32:55.756Z,13.44
2022-09-30T14:36:20.323Z,13.38
2022-09-30T14:39:03.861Z,13.31
2022-09-30T14:41:36.267Z,13.28
2022-09-30T14:44:14.270Z,13.26
2022-09-30T14:46:48.248Z,13.25
2022-09-30T14:49:29.126Z,13.23
2022-09-30T14:52:03.321Z,13.22
2022-09-30T14:54:35.987Z,13.21
2022-09-30T14:57:19.800Z,13.18
2022-09-30T14:59:52.028Z,13.15
2022-09-30T15:02:24.537Z,13.11
2022-09-30T15:05:01.477Z,13.09
2022-09-30T15:07:34.563Z,13.05
2022-09-30T15:10:07.679Z,13.03
2022-09-30T15:12:43.863Z,13.00
2022-09-30T15:15:34.312Z,12.97
2022-09-30T15:18:33.894Z,12.95
2022-09-30T15:21:11.608Z,12.91
2022-09-30T15:23:47.492Z,12.88
2022-09-30T15:26:20.860Z,12.83
2022-09-30T15:28:54.957Z,12.80
2022-09-30T15:31:30.005Z,12.76
2022-09-30T15:34:08.861Z,12.72
2022-09-30T15:36:41.298Z,12.69
2022-09-30T15:39:22.874Z,12.66
2022-09-30T15:41:55.771Z,12.64
2022-09-30T15:44:40.282Z,12.62
2022-09-30T15:47:13.217Z,12.59
2022-09-30T15:49:50.564Z,12.58
2022-09-30T15:52:37.817Z,12.55
2022-09-30T15:55:38.801Z,12.53
2022-09-30T15:58:36.410Z,12.49
2022-09-30T16:01:19.868Z,12.46
2022-09-30T16:03:55.912Z,12.45
2022-09-30T16:06:35.330Z,12.45
2022-09-30T16:09:19.504Z,12.44
2022-09-30T16:12:02.968Z,12.44
2022-09-30T16:14:45.004Z,12.43
2022-09-30T16:17:24.308Z,12.43
2022-09-30T16:19:58.842Z,12.42
2022-09-30T16:22:51.912Z,12.41
2022-09-30T16:25:28.375Z,12.41
2022-09-30T16:28:02.432Z,12.39
2022-09-30T16:30:34.872Z,12.38
2022-09-30T16:33:08.434Z,12.37
2022-09-30T16:35:42.783Z,12.36
2022-09-30T16:38:17.851Z,12.35
2022-09-30T16:40:50.188Z,12.34
2022-09-30T16:43:26.399Z,12.33
2022-09-30T16:46:00.674Z,12.32
2022-09-30T16:48:35.051Z,12.31
2022-09-30T16:51:12.745Z,12.29
2022-09-30T16:53:47.888Z,12.28
2022-09-30T16:56:21.310Z,12.26
2022-09-30T16:58:54.164Z,12.24
2022-09-30T17:01:28.342Z,12.22
2022-09-30T17:04:00.843Z,12.22
2022-09-30T17:06:34.958Z,12.21
2022-09-30T17:09:08.396Z,12.21
2022-09-30T17:11:41.206Z,12.22
2022-09-30T17:14:13.500Z,12.22
2022-09-30T17:16:46.754Z,12.20
2022-09-30T17:19:20.214Z,12.18
2022-09-30T17:21:53.187Z,12.16
2022-09-30T17:24:30.123Z,12.16
2022-09-30T17:27:01.276Z,12.16
2022-09-30T17:29:33.830Z,12.15
2022-09-30T17:32:06.749Z,12.15
2022-09-30T17:34:40.590Z,12.17
2022-09-30T17:37:14.982Z,12.17
2022-09-30T17:39:48.423Z,12.15
2022-09-30T17:42:38.739Z,12.14
2022-09-30T17:45:12.696Z,12.13
2022-09-30T17:47:46.892Z,12.13
2022-09-30T17:50:22.426Z,12.12
2022-09-30T17:52:56.040Z,12.12
2022-09-30T17:55:29.295Z,12.12
2022-09-30T17:58:06.811Z,12.11
2022-09-30T18:00:40.121Z,12.10
2022-09-30T18:03:13.410Z,12.10
2022-09-30T18:05:49.398Z,12.10
2022-09-30T18:08:22.998Z,12.10
2022-09-30T18:10:57.487Z,12.09
2022-09-30T18:13:30.985Z,12.09
2022-09-30T18:16:08.297Z,12.07
2022-09-30T18:18:42.625Z,12.06
2022-09-30T18:21:18.129Z,12.04
2022-09-30T18:23:51.450Z,12.02
2022-09-30T18:26:26.165Z,11.98
2022-09-30T18:29:01.195Z,11.96
2022-09-30T18:31:37.748Z,11.94
2022-09-30T18:34:19.352Z,11.92
2022-09-30T18:36:54.837Z,11.89
2022-09-30T18:39:41.692Z,11.87
2022-09-30T18:42:16.071Z,11.86
2022-09-30T18:44:56.293Z,11.85
2022-09-30T18:47:30.895Z,11.84
2022-09-30T18:50:04.464Z,11.83
2022-09-30T18:52:41.158Z,11.82
2022-09-30T18:55:14.231Z,11.81
2022-09-30T18:57:50.794Z,11.81
2022-09-30T19:00:25.583Z,11.82
2022-09-30T19:03:00.453Z,11.83
2022-09-30T19:05:33.447Z,11.84
2022-09-30T19:08:10.721Z,11.85
2022-09-30T19:10:42.891Z,11.86
2022-09-30T19:13:20.090Z,11.84
2022-09-30T19:15:53.692Z,11.81
2022-09-30T19:18:35.589Z,11.78
2022-09-30T19:21:11.472Z,11.76
2022-09-30T19:23:46.109Z,11.74
2022-09-30T19:26:23.335Z,11.75
2022-09-30T19:28:56.942Z,11.75
2022-09-30T19:31:31.348Z,11.74
2022-09-30T19:34:06.467Z,11.75
2022-09-30T19:36:50.061Z,11.76
2022-09-30T19:39:28.807Z,11.76
2022-09-30T19:42:14.549Z,11.77
2022-09-30T19:44:48.345Z,11.79
2022-09-30T19:47:22.767Z,11.79
2022-09-30T19:49:59.676Z,11.79
2022-09-30T19:52:50.928Z,11.77
2022-09-30T19:55:27.895Z,11.76
2022-09-30T19:58:08.416Z,11.74
2022-09-30T20:00:41.979Z,11.73
2022-09-30T20:03:15.647Z,11.74
2022-09-30T20:05:48.472Z,11.73
2022-09-30T20:08:24.422Z,11.73
2022-09-30T20:11:02.110Z,11.73
2022-09-30T20:13:40.242Z,11.73
2022-09-30T20:16:17.007Z,11.73
2022-09-30T20:18:49.839Z,11.72
2022-09-30T20:21:22.671Z,11.72
2022-09-30T20:23:56.724Z,11.71
2022-09-30T20:26:31.240Z,11.69
2022-09-30T20:29:04.138Z,11.69
2022-09-30T20:31:37.944Z,11.68
2022-09-30T20:34:12.620Z,11.66
2022-09-30T20:36:48.200Z,11.65
2022-09-30T20:39:21.717Z,11.64
2022-09-30T20:41:56.229Z,11.63
2022-09-30T20:44:28.938Z,11.62
2022-09-30T20:47:02.347Z,11.63
2022-09-30T20:49:35.279Z,11.61
2022-09-30T20:52:08.477Z,11.58
2022-09-30T20:54:40.869Z,11.55
2022-09-30T20:57:13.209Z,11.54
2022-09-30T20:59:46.847Z,11.54
2022-09-30T21:02:24.624Z,11.52
2022-09-30T21:04:57.857Z,11.52
2022-09-30T21:07:31.219Z,11.51
2022-09-30T21:10:04.141Z,11.50
2022-09-30T21:12:36.919Z,11.49
2022-09-30T21:15:12.431Z,11.49
2022-09-30T21:17:46.164Z,11.49
2022-09-30T21:20:19.020Z,11.49
2022-09-30T21:22:53.576Z,11.48
2022-09-30T21:25:26.450Z,11.48
2022-09-30T21:28:01.383Z,11.47
2022-09-30T21:30:34.645Z,11.46
2022-09-30T21:33:08.246Z,11.46
2022-09-30T21:35:40.621Z,11.48
2022-09-30T21:38:16.439Z,11.50
2022-09-30T21:40:49.082Z,11.51
2022-09-30T21:43:21.441Z,11.51
2022-09-30T21:46:01.986Z,11.51
2022-09-30T21:48:35.341Z,11.51
2022-09-30T21:51:09.921Z,11.49
2022-09-30T21:53:43.468Z,11.48
2022-09-30T21:56:15.897Z,11.46
2022-09-30T21:58:49.219Z,11.45
2022-09-30T22:01:21.704Z,11.45
2022-09-30T22:03:54.367Z,11.44
2022-09-30T22:06:26.861Z,11.43
2022-09-30T22:09:01.805Z,11.42
2022-09-30T22:11:34.695Z,11.41
2022-09-30T22:14:07.548Z,11.42
2022-09-30T22:16:40.032Z,11.39
2022-09-30T22:19:12.632Z,11.37
2022-09-30T22:21:44.777Z,11.34
2022-09-30T22:24:17.419Z,11.32
2022-09-30T22:26:50.566Z,11.30
2022-09-30T22:29:23.292Z,11.28
2022-09-30T22:31:55.709Z,11.27
2022-09-30T22:34:45.502Z,11.27
2022-09-30T22:37:35.216Z,11.28
2022-09-30T22:40:08.795Z,11.25
2022-09-30T22:42:41.300Z,11.24
2022-09-30T22:45:13.944Z,11.25
2022-09-30T22:47:46.491Z,11.26
2022-09-30T22:50:19.754Z,11.25
2022-09-30T22:52:52.459Z,11.23
2022-09-30T22:55:26.244Z,11.22
2022-09-30T22:57:58.821Z,11.19
2022-09-30T23:00:31.601Z,11.17
2022-09-30T23:03:04.585Z,11.17
2022-09-30T23:05:37.507Z,11.14
2022-09-30T23:08:10.009Z,11.11
2022-09-30T23:10:50.829Z,11.09
2022-09-30T23:13:24.120Z,11.06
2022-09-30T23:16:01.014Z,11.05
2022-09-30T23:18:33.873Z,11.04
2022-09-30T23:21:08.953Z,11.01
2022-09-30T23:23:41.974Z,10.99
2022-09-30T23:26:16.449Z,10.99
2022-09-30T23:28:49.451Z,10.99
2022-09-30T23:31:21.796Z,11.00
2022-09-30T23:33:55.512Z,10.99
2022-09-30T23:36:31.100Z,10.96
2022-09-30T23:39:09.411Z,10.93
2022-09-30T23:41:43.657Z,10.89
2022-09-30T23:44:18.098Z,10.87
2022-09-30T23:47:08.405Z,10.87
2022-09-30T23:49:42.151Z,10.89
2022-09-30T23:52:15.292Z,10.91
2022-09-30T23:54:47.371Z,10.90
2022-09-30T23:57:19.449Z,10.89
2022-09-30T23:59:51.525Z,10.87
